createdAt,value
2018-04-01T00:00:09.956Z,928.84
2018-04-01T00:01:18.139Z,928.85
2018-04-01T00:02:25.996Z,928.87
2018-04-01T00:03:34.198Z,928.90
2018-04-01T00:04:42.107Z,928.93
2018-04-01T00:05:50.205Z,928.94
2018-04-01T00:06:58.386Z,929.00
2018-04-01T00:08:06.294Z,929.07
2018-04-01T00:09:14.488Z,929.08
2018-04-01T00:10:22.429Z,929.17
2018-04-01T00:11:30.497Z,929.20
2018-04-01T00:12:38.545Z,929.18
2018-04-01T00:13:46.572Z,929.12
2018-04-01T00:14:54.768Z,929.09
2018-04-01T00:16:02.712Z,929.09
2018-04-01T00:17:10.802Z,929.05
2018-04-01T00:18:18.841Z,929.04
2018-04-01T00:19:26.936Z,929.13
2018-04-01T00:20:35.058Z,929.06
2018-04-01T00:21:42.970Z,929.09
2018-04-01T00:22:51.209Z,929.09
2018-04-01T00:23:59.088Z,929.13
2018-04-01T00:25:07.217Z,929.10
2018-04-01T00:26:15.396Z,929.08
2018-04-01T00:27:23.445Z,929.08
2018-04-01T00:28:31.372Z,929.09
2018-04-01T00:29:39.437Z,929.08
2018-04-01T00:30:47.526Z,929.11
2018-04-01T00:31:55.525Z,929.11
2018-04-01T00:33:03.720Z,929.16
2018-04-01T00:34:11.696Z,929.12
2018-04-01T00:35:19.798Z,929.15
2018-04-01T00:36:27.921Z,929.17
2018-04-01T00:37:35.843Z,929.19
2018-04-01T00:38:44.025Z,929.17
2018-04-01T00:39:51.931Z,929.20
2018-04-01T00:40:59.999Z,929.23
2018-04-01T00:42:08.104Z,929.24
2018-04-01T00:43:16.152Z,929.27
2018-04-01T00:44:24.356Z,929.28
2018-04-01T00:45:32.238Z,929.26
2018-04-01T00:46:40.337Z,929.29
2018-04-01T00:47:48.360Z,929.31
2018-04-01T00:48:56.499Z,929.31
2018-04-01T00:50:04.558Z,929.39
2018-04-01T00:51:12.512Z,929.38
2018-04-01T00:52:20.572Z,929.42
2018-04-01T00:53:28.621Z,929.42
2018-04-01T00:54:36.750Z,929.43
2018-04-01T00:55:44.881Z,929.40
2018-04-01T00:56:52.855Z,929.43
2018-04-01T00:58:00.861Z,929.42
2018-04-01T00:59:09.127Z,929.42
2018-04-01T01:00:17.082Z,929.43
2018-04-01T01:01:25.204Z,929.44
2018-04-01T01:02:33.118Z,929.44
2018-04-01T01:03:41.295Z,929.48
2018-04-01T01:04:49.314Z,929.49
2018-04-01T01:05:57.296Z,929.48
2018-04-01T01:07:05.434Z,929.46
2018-04-01T01:08:13.391Z,929.51
2018-04-01T01:09:21.438Z,929.51
2018-04-01T01:10:29.498Z,929.56
2018-04-01T01:11:37.616Z,929.55
2018-04-01T01:12:45.784Z,929.57
2018-04-01T01:13:53.741Z,929.56
2018-04-01T01:15:01.782Z,929.60
2018-04-01T01:16:09.788Z,929.62
2018-04-01T01:17:17.850Z,929.64
2018-04-01T01:18:26.050Z,929.69
2018-04-01T01:19:34.112Z,929.68
2018-04-01T01:20:42.075Z,929.70
2018-04-01T01:21:50.266Z,929.68
2018-04-01T01:22:58.160Z,929.65
2018-04-01T01:24:06.198Z,929.67
2018-04-01T01:25:14.259Z,929.66
2018-04-01T01:26:22.325Z,929.73
2018-04-01T01:27:30.504Z,929.67
2018-04-01T01:28:38.438Z,929.72
2018-04-01T01:29:46.629Z,929.69
2018-04-01T01:30:54.556Z,929.70
2018-04-01T01:32:02.652Z,929.71
2018-04-01T01:33:10.795Z,929.73
2018-04-01T01:34:18.736Z,929.74
2018-04-01T01:35:26.840Z,929.72
2018-04-01T01:36:35.024Z,929.71
2018-04-01T01:37:42.953Z,929.70
2018-04-01T01:38:50.979Z,929.68
2018-04-01T01:39:59.045Z,929.73
2018-04-01T01:41:07.202Z,929.73
2018-04-01T01:42:15.161Z,929.71
2018-04-01T01:43:23.206Z,929.74
2018-04-01T01:44:31.274Z,929.75
2018-04-01T01:45:39.493Z,929.78
2018-04-01T01:46:47.584Z,929.76
2018-04-01T01:47:55.501Z,929.78
2018-04-01T01:49:03.502Z,929.80
2018-04-01T01:50:11.559Z,929.85
2018-04-01T01:51:19.621Z,929.84
2018-04-01T01:52:27.795Z,929.85
2018-04-01T01:53:35.746Z,929.83
2018-04-01T01:54:43.812Z,929.83
2018-04-01T01:55:51.853Z,929.83
2018-04-01T01:56:59.985Z,929.86
2018-04-01T01:58:08.122Z,929.89
2018-04-01T01:59:16.190Z,929.87
2018-04-01T02:00:24.091Z,929.87
2018-04-01T02:01:32.287Z,929.84
2018-04-01T02:02:40.305Z,929.85
2018-04-01T02:03:48.262Z,929.86
2018-04-01T02:04:56.491Z,929.88
2018-04-01T02:06:04.414Z,929.82
2018-04-01T02:07:12.594Z,929.83
2018-04-01T02:08:20.572Z,929.83
2018-04-01T02:09:28.635Z,929.78
2018-04-01T02:10:36.801Z,929.85
2018-04-01T02:11:44.687Z,929.81
2018-04-01T02:12:52.762Z,929.86
2018-04-01T02:14:00.785Z,929.93
2018-04-01T02:15:08.942Z,929.88
2018-04-01T02:16:16.969Z,929.85
2018-04-01T02:17:25.052Z,929.89
2018-04-01T02:18:33.196Z,929.89
2018-04-01T02:19:41.103Z,929.95
2018-04-01T02:20:49.153Z,929.97
2018-04-01T02:21:57.380Z,929.99
2018-04-01T02:23:05.407Z,929.96
2018-04-01T02:24:13.385Z,930.00
2018-04-01T02:25:21.405Z,929.98
2018-04-01T02:26:29.610Z,930.02
2018-04-01T02:27:37.499Z,930.03
2018-04-01T02:28:45.559Z,930.02
2018-04-01T02:29:53.693Z,930.01
2018-04-01T02:31:01.694Z,930.04
2018-04-01T02:32:09.937Z,930.06
2018-04-01T02:33:17.918Z,930.07
2018-04-01T02:34:25.864Z,930.06
2018-04-01T02:35:33.905Z,930.09
2018-04-01T02:36:41.987Z,930.07
2018-04-01T02:37:50.204Z,930.10
2018-04-01T02:38:58.151Z,930.12
2018-04-01T02:40:06.193Z,930.12
2018-04-01T02:41:14.206Z,930.15
2018-04-01T02:42:22.268Z,930.11
2018-04-01T02:43:30.454Z,930.15
2018-04-01T02:44:38.522Z,930.15
2018-04-01T02:45:46.599Z,930.15
2018-04-01T02:46:54.535Z,930.17
2018-04-01T02:48:02.566Z,930.21
2018-04-01T02:49:10.629Z,930.22
2018-04-01T02:50:18.788Z,930.21
2018-04-01T02:51:26.787Z,930.16
2018-04-01T02:52:34.804Z,930.21
2018-04-01T02:53:42.924Z,930.21
2018-04-01T02:54:50.902Z,930.18
2018-04-01T02:55:59.121Z,930.21
2018-04-01T02:57:07.058Z,930.19
2018-04-01T02:58:15.309Z,930.22
2018-04-01T02:59:23.139Z,930.24
2018-04-01T03:00:31.193Z,930.22
2018-04-01T03:01:39.380Z,930.22
2018-04-01T03:02:47.341Z,930.27
2018-04-01T03:03:55.372Z,930.27
2018-04-01T03:05:03.416Z,930.29
2018-04-01T03:06:11.522Z,930.28
2018-04-01T03:07:19.786Z,930.29
2018-04-01T03:08:27.689Z,930.27
2018-04-01T03:09:35.670Z,930.27
2018-04-01T03:10:43.736Z,930.34
2018-04-01T03:11:51.790Z,930.32
2018-04-01T03:12:59.991Z,930.29
2018-04-01T03:14:08.016Z,930.35
2018-04-01T03:15:15.973Z,930.39
2018-04-01T03:16:24.031Z,930.38
2018-04-01T03:17:32.085Z,930.36
2018-04-01T03:18:40.258Z,930.39
2018-04-01T03:19:48.195Z,930.40
2018-04-01T03:20:56.316Z,930.38
2018-04-01T03:22:04.373Z,930.41
2018-04-01T03:23:12.461Z,930.42
2018-04-01T03:24:20.565Z,930.41
2018-04-01T03:25:28.476Z,930.42
2018-04-01T03:26:36.611Z,930.39
2018-04-01T03:27:44.605Z,930.45
2018-04-01T03:28:52.703Z,930.42
2018-04-01T03:30:00.900Z,930.47
2018-04-01T03:31:08.805Z,930.44
2018-04-01T03:32:16.885Z,930.45
2018-04-01T03:33:24.937Z,930.45
2018-04-01T03:34:33.026Z,930.46
2018-04-01T03:35:41.138Z,930.45
2018-04-01T03:36:49.077Z,930.49
2018-04-01T03:37:57.133Z,930.49
2018-04-01T03:39:05.317Z,930.50
2018-04-01T03:40:13.329Z,930.55
2018-04-01T03:41:21.339Z,930.56
2018-04-01T03:42:29.422Z,930.57
2018-04-01T03:43:37.443Z,930.56
2018-04-01T03:44:45.599Z,930.59
2018-04-01T03:45:53.666Z,930.58
2018-04-01T03:47:01.612Z,930.60
2018-04-01T03:48:09.729Z,930.58
2018-04-01T03:49:17.744Z,930.57
2018-04-01T03:50:25.932Z,930.63
2018-04-01T03:51:33.882Z,930.61
2018-04-01T03:52:41.935Z,930.61
2018-04-01T03:53:50.015Z,930.63
2018-04-01T03:54:58.205Z,930.64
2018-04-01T03:56:06.265Z,930.63
2018-04-01T03:57:14.163Z,930.70
2018-04-01T03:58:22.367Z,930.70
2018-04-01T03:59:30.270Z,930.72
2018-04-01T04:00:38.346Z,930.73
2018-04-01T04:01:46.533Z,930.73
2018-04-01T04:02:54.499Z,930.78
2018-04-01T04:04:02.522Z,930.78
2018-04-01T04:05:10.588Z,930.82
2018-04-01T04:06:18.644Z,930.79
2018-04-01T04:07:26.846Z,930.79
2018-04-01T04:08:34.890Z,930.81
2018-04-01T04:09:42.849Z,930.74
2018-04-01T04:10:51.037Z,930.72
2018-04-01T04:11:58.950Z,930.78
2018-04-01T04:13:07.095Z,930.81
2018-04-01T04:14:15.041Z,930.75
2018-04-01T04:15:23.210Z,930.78
2018-04-01T04:16:31.206Z,930.83
2018-04-01T04:17:39.224Z,930.80
2018-04-01T04:18:47.276Z,930.83
2018-04-01T04:19:55.350Z,930.85
2018-04-01T04:21:03.526Z,930.85
2018-04-01T04:22:11.497Z,930.86
2018-04-01T04:23:19.509Z,930.88
2018-04-01T04:24:27.558Z,930.91
2018-04-01T04:25:35.629Z,930.93
2018-04-01T04:26:43.861Z,930.90
2018-04-01T04:27:51.779Z,930.93
2018-04-01T04:29:00.023Z,930.98
2018-04-01T04:30:08.143Z,930.99
2018-04-01T04:31:16.027Z,930.97
2018-04-01T04:32:24.083Z,930.97
2018-04-01T04:33:32.257Z,931.00
2018-04-01T04:34:40.183Z,931.04
2018-04-01T04:35:48.278Z,931.02
2018-04-01T04:36:56.424Z,931.01
2018-04-01T04:38:04.367Z,931.03
2018-04-01T04:39:12.436Z,931.06
2018-04-01T04:40:20.496Z,931.05
2018-04-01T04:41:28.531Z,931.03
2018-04-01T04:42:36.776Z,931.06
2018-04-01T04:43:44.707Z,931.12
2018-04-01T04:44:52.896Z,931.12
2018-04-01T04:46:00.791Z,931.16
2018-04-01T04:47:08.873Z,931.16
2018-04-01T04:48:17.104Z,931.19
2018-04-01T04:49:25.000Z,931.19
2018-04-01T04:50:33.005Z,931.19
2018-04-01T04:51:41.074Z,931.25
2018-04-01T04:52:49.153Z,931.23
2018-04-01T04:53:57.361Z,931.28
2018-04-01T04:55:05.280Z,931.27
2018-04-01T04:56:13.309Z,931.30
2018-04-01T04:57:21.488Z,931.28
2018-04-01T04:58:29.416Z,931.27
2018-04-01T04:59:37.636Z,931.33
2018-04-01T05:00:45.717Z,931.36
2018-04-01T05:01:53.672Z,931.39
2018-04-01T05:03:01.726Z,931.42
2018-04-01T05:04:09.866Z,931.41
2018-04-01T05:05:17.806Z,931.41
2018-04-01T05:06:25.965Z,931.37
2018-04-01T05:07:34.089Z,931.41
2018-04-01T05:08:41.969Z,931.42
2018-04-01T05:09:50.089Z,931.49
2018-04-01T05:10:58.775Z,931.46
2018-04-01T05:15:02.806Z,931.60
2018-04-01T05:16:10.989Z,931.64
2018-04-01T05:17:18.941Z,931.62
2018-04-01T05:18:27.844Z,931.71
2018-04-01T05:19:35.292Z,931.72
2018-04-01T05:20:43.111Z,931.73
2018-04-01T05:21:51.283Z,931.73
2018-04-01T05:23:02.519Z,931.74
2018-04-01T05:24:10.489Z,931.79
2018-04-01T05:26:26.661Z,931.80
2018-04-01T05:27:34.780Z,931.84
2018-04-01T05:28:42.791Z,931.88
2018-04-01T05:29:50.922Z,931.91
2018-04-01T05:30:59.191Z,931.91
2018-04-01T05:32:06.879Z,932.00
2018-04-01T05:33:14.939Z,932.05
2018-04-01T05:34:23.112Z,931.99
2018-04-01T05:35:31.135Z,932.01
2018-04-01T05:36:39.142Z,932.10
2018-04-01T05:37:47.302Z,932.12
2018-04-01T05:38:55.281Z,932.16
2018-04-01T05:40:03.349Z,932.20
2018-04-01T05:41:11.510Z,932.16
2018-04-01T05:42:19.421Z,932.19
2018-04-01T05:43:27.535Z,932.25
2018-04-01T05:44:35.545Z,932.24
2018-04-01T05:45:43.627Z,932.26
2018-04-01T05:46:51.798Z,932.25
2018-04-01T05:47:59.776Z,932.26
2018-04-01T05:49:07.914Z,932.26
2018-04-01T05:50:15.832Z,932.31
2018-04-01T05:51:23.883Z,932.29
2018-04-01T05:52:32.112Z,932.34
2018-04-01T05:53:40.012Z,932.33
2018-04-01T05:54:48.239Z,932.37
2018-04-01T05:55:56.921Z,932.41
2018-04-01T05:57:04.925Z,932.38
2018-04-01T05:58:13.078Z,932.39
2018-04-01T05:59:21.013Z,932.39
2018-04-01T06:00:29.209Z,932.39
2018-04-01T06:01:37.151Z,932.46
2018-04-01T06:02:45.254Z,932.51
2018-04-01T06:03:53.434Z,932.47
2018-04-01T06:05:01.369Z,932.48
2018-04-01T06:06:09.575Z,932.48
2018-04-01T06:07:17.439Z,932.50
2018-04-01T06:08:25.500Z,932.50
2018-04-01T06:09:33.696Z,932.50
2018-04-01T06:10:42.926Z,932.52
2018-04-01T06:11:49.777Z,932.51
2018-04-01T06:13:00.294Z,932.56
2018-04-01T06:14:05.956Z,932.60
2018-04-01T06:15:13.906Z,932.63
2018-04-01T06:16:21.942Z,932.62
2018-04-01T06:17:29.984Z,932.65
